Aérodrome :
LOGIN :

S'inscrire | Disclaimer

   EN    FR    IT 

 










Légende :    VFR   VFR Marginal   IFR   IFR Intensif   IFR Très Intensif
Visi : 
Plafond : 
>= 8 km
>= 3000ft
5 à 8 km
1000 à 3000 ft
1500m à 5 km
500 à 1000 ft
800 à 1500m
200 à 500 ft
< 800m
< 200 ft
Symboles :   Orages  Brouillard  Fortes neiges  Fortes précipitations  Vent > 20 kt
SIGMETs :   Divers  Orages  Givrage  Turbulence  Onde Orograph.  Cendres Volcan.







- Altitude de l'aérodrome : 26 ft
- Code IATA : GLA
- Voir les cartes d'approche


EGPF - Glasgow

DERNIER METAR :
  • 230650Z AUTO 26004KT 9999 NCD M05/M06 Q1001

METARs EXPIRÉS :
  • 230620Z AUTO VRB02KT 9999 NCD M06/M07 Q1001
  • 230550Z AUTO 26002KT 8000 NCD M07/M08 Q1000
  • 230520Z AUTO VRB02KT 0400 R23/1100 FZFG FEW001 M07/M07 Q1000
  • 230450Z AUTO 23001KT 0150 FZFG SCT001 M07/M07 Q1000
  • 230420Z AUTO VRB01KT 0350 FZFG NCD M05/M06 Q1000
  • 230350Z AUTO 26001KT 4400 BR NCD M05/M05 Q0999

TAF TAF EGPF
Valide du 23 à 06h jusqu'au 24 à 06h UTC


230457Z 2306/2406 VRB03KT 9999 FEW010 SCT020
PROB30 2306/2310 0300 FZFG BKN001
PROB30
TEMPO 2316/2322 6000 SHRA
PROB30 2322/2406 0750 FG BKN001
ATIS : +44 141 887 7449
Pas de NOTAMs connus pour ce terrain.



MET'MAP, la Météo Aéronautique d'un coup d'oeil ! - Copyright ORBIFLY Décembre 2007 - Disclaimer

ORBIFLY MET'MAP TEAM :

Programmation & Développement : Alexandra Zaïnal
Conception & Développement : Baudouin d'Aumeries
Co-Programmation & Développement : Marc-Olivier Méhu
Soutien technique & logistique : Manuel Goepfert

Contact : metmap@orbifly.com




SOURCES & CREDITS :

   NOAA